Wausau, WI (54402)

9:02 PM CST on November 28, 2014 (GMT -0600)
6 White Pillars | Change Station
CLOSE
Current Station
Personal Weather Station
Location: Wausau, WI
Elevation: 1381 ft
Nearby Weather Stations

Elev 1381 ft 45.00 °N, 89.60 °W | Updated 2 minutes ago

Partly Cloudy
Partly Cloudy
16.4 °F
Feels Like 8 °F
N
6.0
Wind Variable Wind from ENE
Gusts 6.0 mph

Today
High -- | Low -- °F
--% Chance of Precip.
Yesterday
High -- | Low -- °F
Precip. -- in
7:13 AM 4:19 PM
Waxing Crescent, 47% visible
Pressure 29.92 in
Visibility 9.0 miles
Clouds Few 1700 ft
Mostly Cloudy 9500 ft
Windchill 8 °F
Dew Point 15 °F
Humidity 93%
Rainfall 0.00 in
Snow Depth Not available.
UV 0 out of 12
Pollen .10 out of 12
Air Quality Not available.
Flu Activity Not available.
METAR KAUW 290254Z AUTO 10007KT 9SM FEW017 BKN095 M08/M10 A2984 RMK AO2 SLP132 T10831100 58016

More Conditions Fewer Conditions

Pressure 29.92 in
Visibility 9.0 miles
Clouds Few 1700 ft
Mostly Cloudy 9500 ft
Windchill 8 °F
Dew Point 15 °F
Humidity 93%
Rainfall 0.00 in
Snow Depth Not available.
UV 0 out of 12
Pollen .10 out of 12
Air Quality Not available.
Flu Activity Not available.
METAR KAUW 290254Z AUTO 10007KT 9SM FEW017 BKN095 M08/M10 A2984 RMK AO2 SLP132 T10831100 58016

More Conditions Fewer Conditions

10-Day Weather Forecast

Almanac

Astronomy

Nov. 28, 2014 Rise Set
Actual Time
Civil Twilight
Nautical Twilight
Astronomical Twilight
Moon
Length of Visible Light
Length of Day
Tomorrow will be .
, % of the Moon is Illuminated

Today's Extremes

State Highs State Lows

Community

WunderPhotos

Upload Photos

1,774,381 photos uploaded!

WunderBlogs® & News

Nearby

Air Quality

  Air Quality AQ Index Pollutant
Not available.

Snow Depth

Station Depth Elevation

Earthquake Activity

City Distance Mag. Time & Date
Minimum magnitude displayed is 2.5.

Coastal Water Temperatures

Place Temperature

Nearby Weather Stations